sensor_id;sensor_type;location;lat;lon;timestamp;P1;durP1;ratioP1;P2;durP2;ratioP2
38455;SDS011;24237;50.106;20.014;2023-02-10T00:01:04;97.18;;;37.65;;
38455;SDS011;24237;50.106;20.014;2023-02-10T00:03:34;100.13;;;34.67;;
38455;SDS011;24237;50.106;20.014;2023-02-10T00:06:01;93.00;;;35.33;;
38455;SDS011;24237;50.106;20.014;2023-02-10T00:08:27;98.68;;;34.67;;
38455;SDS011;24237;50.106;20.014;2023-02-10T00:10:57;90.00;;;33.88;;
38455;SDS011;24237;50.106;20.014;2023-02-10T00:13:24;74.07;;;29.15;;
38455;SDS011;24237;50.106;20.014;2023-02-10T00:15:50;77.00;;;30.05;;
38455;SDS011;24237;50.106;20.014;2023-02-10T00:18:16;95.63;;;33.38;;
38455;SDS011;24237;50.106;20.014;2023-02-10T00:20:41;83.95;;;31.92;;
38455;SDS011;24237;50.106;20.014;2023-02-10T00:23:08;95.35;;;36.83;;
38455;SDS011;24237;50.106;20.014;2023-02-10T00:25:34;109.32;;;42.00;;
38455;SDS011;24237;50.106;20.014;2023-02-10T00:28:00;111.38;;;42.67;;
38455;SDS011;24237;50.106;20.014;2023-02-10T00:30:26;108.50;;;42.13;;
38455;SDS011;24237;50.106;20.014;2023-02-10T00:32:53;126.82;;;49.88;;
38455;SDS011;24237;50.106;20.014;2023-02-10T00:35:18;132.52;;;48.72;;
38455;SDS011;24237;50.106;20.014;2023-02-10T00:37:45;132.82;;;49.45;;
38455;SDS011;24237;50.106;20.014;2023-02-10T00:40:11;128.65;;;49.17;;
38455;SDS011;24237;50.106;20.014;2023-02-10T00:42:37;133.90;;;49.38;;
38455;SDS011;24237;50.106;20.014;2023-02-10T00:45:03;136.18;;;48.67;;
38455;SDS011;24237;50.106;20.014;2023-02-10T00:47:29;133.87;;;47.80;;
38455;SDS011;24237;50.106;20.014;2023-02-10T00:49:54;127.38;;;47.42;;
38455;SDS011;24237;50.106;20.014;2023-02-10T00:52:20;125.40;;;44.25;;
38455;SDS011;24237;50.106;20.014;2023-02-10T00:54:47;108.60;;;40.67;;
38455;SDS011;24237;50.106;20.014;2023-02-10T00:57:14;111.38;;;40.58;;
38455;SDS011;24237;50.106;20.014;2023-02-10T00:59:39;102.07;;;37.83;;
38455;SDS011;24237;50.106;20.014;2023-02-10T01:02:05;102.55;;;37.22;;
38455;SDS011;24237;50.106;20.014;2023-02-10T01:04:31;92.03;;;34.10;;
38455;SDS011;24237;50.106;20.014;2023-02-10T01:06:57;89.07;;;33.05;;
38455;SDS011;24237;50.106;20.014;2023-02-10T01:09:22;92.53;;;32.90;;
38455;SDS011;24237;50.106;20.014;2023-02-10T01:11:48;97.07;;;33.67;;
38455;SDS011;24237;50.106;20.014;2023-02-10T01:14:14;97.25;;;36.83;;
38455;SDS011;24237;50.106;20.014;2023-02-10T01:16:40;87.68;;;32.85;;
38455;SDS011;24237;50.106;20.014;2023-02-10T01:19:05;84.28;;;32.28;;
38455;SDS011;24237;50.106;20.014;2023-02-10T01:21:31;102.68;;;32.92;;
38455;SDS011;24237;50.106;20.014;2023-02-10T01:23:57;99.68;;;35.33;;
38455;SDS011;24237;50.106;20.014;2023-02-10T01:26:23;87.10;;;31.60;;
38455;SDS011;24237;50.106;20.014;2023-02-10T01:28:49;81.63;;;30.63;;
38455;SDS011;24237;50.106;20.014;2023-02-10T01:31:16;99.32;;;33.50;;
38455;SDS011;24237;50.106;20.014;2023-02-10T01:33:43;96.10;;;33.83;;
38455;SDS011;24237;50.106;20.014;2023-02-10T01:36:10;90.90;;;35.50;;
38455;SDS011;24237;50.106;20.014;2023-02-10T01:38:38;91.20;;;32.67;;
38455;SDS011;24237;50.106;20.014;2023-02-10T01:41:05;89.90;;;31.50;;
38455;SDS011;24237;50.106;20.014;2023-02-10T01:43:30;92.10;;;32.95;;
38455;SDS011;24237;50.106;20.014;2023-02-10T01:45:56;83.90;;;30.10;;
38455;SDS011;24237;50.106;20.014;2023-02-10T01:48:22;75.50;;;26.63;;
38455;SDS011;24237;50.106;20.014;2023-02-10T01:50:53;85.85;;;31.58;;
38455;SDS011;24237;50.106;20.014;2023-02-10T01:53:22;81.85;;;29.73;;
38455;SDS011;24237;50.106;20.014;2023-02-10T01:55:50;104.38;;;34.40;;
38455;SDS011;24237;50.106;20.014;2023-02-10T01:58:20;90.88;;;33.95;;
38455;SDS011;24237;50.106;20.014;2023-02-10T02:00:49;93.35;;;34.97;;
38455;SDS011;24237;50.106;20.014;2023-02-10T02:03:15;97.40;;;36.88;;
38455;SDS011;24237;50.106;20.014;2023-02-10T02:05:41;96.70;;;35.20;;
38455;SDS011;24237;50.106;20.014;2023-02-10T02:10:43;105.28;;;36.85;;
38455;SDS011;24237;50.106;20.014;2023-02-10T02:13:15;98.93;;;36.30;;
38455;SDS011;24237;50.106;20.014;2023-02-10T02:16:09;97.28;;;34.47;;
38455;SDS011;24237;50.106;20.014;2023-02-10T02:18:42;88.68;;;33.83;;
38455;SDS011;24237;50.106;20.014;2023-02-10T02:29:22;81.78;;;28.15;;
38455;SDS011;24237;50.106;20.014;2023-02-10T02:37:18;94.75;;;34.70;;
38455;SDS011;24237;50.106;20.014;2023-02-10T02:39:50;81.75;;;31.38;;
38455;SDS011;24237;50.106;20.014;2023-02-10T02:42:23;84.00;;;32.85;;
38455;SDS011;24237;50.106;20.014;2023-02-10T02:44:51;89.00;;;31.42;;
38455;SDS011;24237;50.106;20.014;2023-02-10T02:47:27;96.63;;;33.53;;
38455;SDS011;24237;50.106;20.014;2023-02-10T03:01:08;121.28;;;44.83;;
38455;SDS011;24237;50.106;20.014;2023-02-10T03:03:38;121.72;;;46.33;;
38455;SDS011;24237;50.106;20.014;2023-02-10T03:06:04;109.40;;;41.92;;
38455;SDS011;24237;50.106;20.014;2023-02-10T03:08:30;117.75;;;45.15;;
38455;SDS011;24237;50.106;20.014;2023-02-10T03:10:57;120.57;;;42.88;;
38455;SDS011;24237;50.106;20.014;2023-02-10T03:13:23;108.65;;;38.42;;
38455;SDS011;24237;50.106;20.014;2023-02-10T03:15:48;101.32;;;38.42;;
38455;SDS011;24237;50.106;20.014;2023-02-10T03:18:14;102.70;;;37.08;;
38455;SDS011;24237;50.106;20.014;2023-02-10T03:20:40;93.97;;;36.53;;
38455;SDS011;24237;50.106;20.014;2023-02-10T03:23:06;115.32;;;40.70;;
38455;SDS011;24237;50.106;20.014;2023-02-10T03:25:32;104.75;;;39.00;;
38455;SDS011;24237;50.106;20.014;2023-02-10T03:27:58;110.38;;;39.47;;
38455;SDS011;24237;50.106;20.014;2023-02-10T03:30:23;116.25;;;42.28;;
38455;SDS011;24237;50.106;20.014;2023-02-10T03:32:49;107.35;;;36.38;;
38455;SDS011;24237;50.106;20.014;2023-02-10T03:35:18;104.20;;;37.53;;
38455;SDS011;24237;50.106;20.014;2023-02-10T03:37:44;95.50;;;35.72;;
38455;SDS011;24237;50.106;20.014;2023-02-10T03:40:09;97.30;;;36.25;;
38455;SDS011;24237;50.106;20.014;2023-02-10T03:42:35;89.05;;;34.67;;
38455;SDS011;24237;50.106;20.014;2023-02-10T03:45:01;97.57;;;33.78;;
38455;SDS011;24237;50.106;20.014;2023-02-10T03:47:27;95.00;;;32.63;;
38455;SDS011;24237;50.106;20.014;2023-02-10T03:49:52;92.22;;;33.38;;
38455;SDS011;24237;50.106;20.014;2023-02-10T03:52:18;85.05;;;30.15;;
38455;SDS011;24237;50.106;20.014;2023-02-10T03:54:43;78.28;;;28.45;;
38455;SDS011;24237;50.106;20.014;2023-02-10T03:57:10;70.70;;;26.25;;
38455;SDS011;24237;50.106;20.014;2023-02-10T03:59:36;80.57;;;27.33;;
38455;SDS011;24237;50.106;20.014;2023-02-10T04:02:02;75.30;;;27.45;;
38455;SDS011;24237;50.106;20.014;2023-02-10T04:04:27;78.47;;;26.52;;
38455;SDS011;24237;50.106;20.014;2023-02-10T04:06:53;73.05;;;25.63;;
38455;SDS011;24237;50.106;20.014;2023-02-10T04:09:19;76.55;;;25.45;;
38455;SDS011;24237;50.106;20.014;2023-02-10T04:11:45;72.72;;;26.00;;
38455;SDS011;24237;50.106;20.014;2023-02-10T04:14:10;73.45;;;25.98;;
38455;SDS011;24237;50.106;20.014;2023-02-10T04:16:36;65.80;;;23.33;;
38455;SDS011;24237;50.106;20.014;2023-02-10T04:19:01;61.60;;;24.85;;
38455;SDS011;24237;50.106;20.014;2023-02-10T04:21:27;60.88;;;22.73;;
38455;SDS011;24237;50.106;20.014;2023-02-10T04:23:53;65.78;;;25.55;;
38455;SDS011;24237;50.106;20.014;2023-02-10T04:26:18;59.38;;;23.30;;
38455;SDS011;24237;50.106;20.014;2023-02-10T04:28:44;64.72;;;23.50;;
38455;SDS011;24237;50.106;20.014;2023-02-10T04:31:09;75.03;;;25.10;;
38455;SDS011;24237;50.106;20.014;2023-02-10T04:33:35;75.45;;;26.80;;
38455;SDS011;24237;50.106;20.014;2023-02-10T04:36:01;64.50;;;24.58;;
38455;SDS011;24237;50.106;20.014;2023-02-10T04:38:27;67.38;;;26.90;;
38455;SDS011;24237;50.106;20.014;2023-02-10T04:40:54;69.18;;;28.75;;
38455;SDS011;24237;50.106;20.014;2023-02-10T04:43:19;90.43;;;31.40;;
38455;SDS011;24237;50.106;20.014;2023-02-10T04:45:45;82.63;;;31.83;;
38455;SDS011;24237;50.106;20.014;2023-02-10T04:48:11;86.75;;;32.42;;
38455;SDS011;24237;50.106;20.014;2023-02-10T04:53:05;88.07;;;29.27;;
38455;SDS011;24237;50.106;20.014;2023-02-10T04:55:31;81.85;;;30.20;;
38455;SDS011;24237;50.106;20.014;2023-02-10T04:57:58;85.95;;;30.70;;
38455;SDS011;24237;50.106;20.014;2023-02-10T05:00:24;78.75;;;29.33;;
38455;SDS011;24237;50.106;20.014;2023-02-10T05:02:50;79.68;;;29.25;;
38455;SDS011;24237;50.106;20.014;2023-02-10T05:05:15;79.40;;;29.27;;
38455;SDS011;24237;50.106;20.014;2023-02-10T05:07:41;84.97;;;30.40;;
38455;SDS011;24237;50.106;20.014;2023-02-10T05:10:07;73.60;;;26.52;;
38455;SDS011;24237;50.106;20.014;2023-02-10T05:12:33;87.78;;;30.05;;
38455;SDS011;24237;50.106;20.014;2023-02-10T05:14:58;78.03;;;27.27;;
38455;SDS011;24237;50.106;20.014;2023-02-10T05:17:24;65.82;;;26.65;;
38455;SDS011;24237;50.106;20.014;2023-02-10T05:19:49;73.15;;;26.70;;
38455;SDS011;24237;50.106;20.014;2023-02-10T05:22:15;65.57;;;24.77;;
38455;SDS011;24237;50.106;20.014;2023-02-10T05:24:40;63.50;;;23.88;;
38455;SDS011;24237;50.106;20.014;2023-02-10T05:27:06;57.50;;;24.25;;
38455;SDS011;24237;50.106;20.014;2023-02-10T05:29:32;71.97;;;25.92;;
38455;SDS011;24237;50.106;20.014;2023-02-10T05:31:57;69.88;;;25.85;;
38455;SDS011;24237;50.106;20.014;2023-02-10T05:34:23;69.22;;;26.55;;
38455;SDS011;24237;50.106;20.014;2023-02-10T05:36:50;59.20;;;22.88;;
38455;SDS011;24237;50.106;20.014;2023-02-10T05:39:16;61.35;;;22.92;;
38455;SDS011;24237;50.106;20.014;2023-02-10T05:41:47;62.08;;;23.20;;
38455;SDS011;24237;50.106;20.014;2023-02-10T05:44:13;63.60;;;26.05;;
38455;SDS011;24237;50.106;20.014;2023-02-10T05:46:39;73.88;;;25.98;;
38455;SDS011;24237;50.106;20.014;2023-02-10T05:49:05;66.85;;;23.05;;
38455;SDS011;24237;50.106;20.014;2023-02-10T05:51:30;65.00;;;25.08;;
38455;SDS011;24237;50.106;20.014;2023-02-10T05:53:56;52.78;;;22.08;;
38455;SDS011;24237;50.106;20.014;2023-02-10T05:56:22;59.35;;;24.33;;
38455;SDS011;24237;50.106;20.014;2023-02-10T05:58:47;62.40;;;24.55;;
38455;SDS011;24237;50.106;20.014;2023-02-10T06:01:13;61.25;;;24.60;;
38455;SDS011;24237;50.106;20.014;2023-02-10T06:03:38;60.80;;;23.63;;
38455;SDS011;24237;50.106;20.014;2023-02-10T06:06:04;69.80;;;25.35;;
38455;SDS011;24237;50.106;20.014;2023-02-10T06:08:30;60.42;;;23.75;;
38455;SDS011;24237;50.106;20.014;2023-02-10T06:10:56;65.63;;;25.73;;
38455;SDS011;24237;50.106;20.014;2023-02-10T06:13:21;66.07;;;26.17;;
38455;SDS011;24237;50.106;20.014;2023-02-10T06:15:47;70.38;;;26.80;;
38455;SDS011;24237;50.106;20.014;2023-02-10T06:18:13;77.05;;;28.05;;
38455;SDS011;24237;50.106;20.014;2023-02-10T06:20:38;72.05;;;27.00;;
38455;SDS011;24237;50.106;20.014;2023-02-10T06:23:04;81.90;;;27.98;;
38455;SDS011;24237;50.106;20.014;2023-02-10T06:25:29;70.40;;;25.80;;
38455;SDS011;24237;50.106;20.014;2023-02-10T06:27:55;76.07;;;28.80;;
38455;SDS011;24237;50.106;20.014;2023-02-10T06:30:20;77.60;;;29.45;;
38455;SDS011;24237;50.106;20.014;2023-02-10T06:32:46;76.50;;;26.38;;
38455;SDS011;24237;50.106;20.014;2023-02-10T06:35:12;69.38;;;26.30;;
38455;SDS011;24237;50.106;20.014;2023-02-10T06:37:37;68.53;;;26.02;;
38455;SDS011;24237;50.106;20.014;2023-02-10T06:40:03;63.75;;;26.50;;
38455;SDS011;24237;50.106;20.014;2023-02-10T06:42:30;51.53;;;22.17;;
38455;SDS011;24237;50.106;20.014;2023-02-10T06:44:56;80.28;;;27.98;;
38455;SDS011;24237;50.106;20.014;2023-02-10T06:47:21;72.90;;;26.92;;
38455;SDS011;24237;50.106;20.014;2023-02-10T06:49:47;83.93;;;28.50;;
38455;SDS011;24237;50.106;20.014;2023-02-10T06:52:13;75.63;;;27.40;;
38455;SDS011;24237;50.106;20.014;2023-02-10T06:54:38;71.07;;;28.17;;
38455;SDS011;24237;50.106;20.014;2023-02-10T06:57:04;74.97;;;25.92;;
38455;SDS011;24237;50.106;20.014;2023-02-10T06:59:31;75.93;;;28.17;;
38455;SDS011;24237;50.106;20.014;2023-02-10T07:01:57;76.53;;;30.40;;
38455;SDS011;24237;50.106;20.014;2023-02-10T07:04:28;73.32;;;28.92;;
38455;SDS011;24237;50.106;20.014;2023-02-10T07:06:55;79.18;;;28.42;;
38455;SDS011;24237;50.106;20.014;2023-02-10T07:09:21;72.77;;;29.30;;
38455;SDS011;24237;50.106;20.014;2023-02-10T07:11:47;77.43;;;29.30;;
38455;SDS011;24237;50.106;20.014;2023-02-10T07:14:13;80.87;;;31.17;;
38455;SDS011;24237;50.106;20.014;2023-02-10T07:16:39;79.35;;;29.17;;
38455;SDS011;24237;50.106;20.014;2023-02-10T07:19:04;72.63;;;28.23;;
38455;SDS011;24237;50.106;20.014;2023-02-10T07:21:30;73.82;;;29.33;;
38455;SDS011;24237;50.106;20.014;2023-02-10T07:23:56;65.47;;;24.00;;
38455;SDS011;24237;50.106;20.014;2023-02-10T07:26:21;61.17;;;25.88;;
38455;SDS011;24237;50.106;20.014;2023-02-10T07:28:47;68.75;;;27.63;;
38455;SDS011;24237;50.106;20.014;2023-02-10T07:31:13;74.07;;;27.38;;
38455;SDS011;24237;50.106;20.014;2023-02-10T07:33:39;65.45;;;26.88;;
38455;SDS011;24237;50.106;20.014;2023-02-10T07:36:05;69.10;;;28.50;;
38455;SDS011;24237;50.106;20.014;2023-02-10T07:38:31;65.43;;;26.47;;
38455;SDS011;24237;50.106;20.014;2023-02-10T07:40:57;67.88;;;25.58;;
38455;SDS011;24237;50.106;20.014;2023-02-10T07:43:23;69.45;;;27.05;;
38455;SDS011;24237;50.106;20.014;2023-02-10T07:45:49;58.03;;;25.40;;
38455;SDS011;24237;50.106;20.014;2023-02-10T07:48:17;75.00;;;29.88;;
38455;SDS011;24237;50.106;20.014;2023-02-10T07:50:43;79.07;;;27.75;;
38455;SDS011;24237;50.106;20.014;2023-02-10T07:53:11;68.43;;;28.13;;
38455;SDS011;24237;50.106;20.014;2023-02-10T07:55:37;69.20;;;28.33;;
38455;SDS011;24237;50.106;20.014;2023-02-10T07:58:03;70.70;;;29.35;;
38455;SDS011;24237;50.106;20.014;2023-02-10T08:00:29;56.17;;;22.40;;
38455;SDS011;24237;50.106;20.014;2023-02-10T08:02:55;67.78;;;29.58;;
38455;SDS011;24237;50.106;20.014;2023-02-10T08:05:21;74.25;;;28.65;;
38455;SDS011;24237;50.106;20.014;2023-02-10T08:07:47;67.28;;;28.92;;
38455;SDS011;24237;50.106;20.014;2023-02-10T08:10:13;66.80;;;27.38;;
38455;SDS011;24237;50.106;20.014;2023-02-10T08:12:39;56.70;;;26.27;;
38455;SDS011;24237;50.106;20.014;2023-02-10T08:15:05;66.50;;;26.85;;
38455;SDS011;24237;50.106;20.014;2023-02-10T08:17:32;70.60;;;26.83;;
38455;SDS011;24237;50.106;20.014;2023-02-10T08:19:57;65.80;;;26.70;;
38455;SDS011;24237;50.106;20.014;2023-02-10T08:22:23;57.95;;;25.85;;
38455;SDS011;24237;50.106;20.014;2023-02-10T08:24:48;59.80;;;24.67;;
38455;SDS011;24237;50.106;20.014;2023-02-10T08:27:14;56.42;;;24.23;;
38455;SDS011;24237;50.106;20.014;2023-02-10T08:29:39;53.85;;;22.67;;
38455;SDS011;24237;50.106;20.014;2023-02-10T08:32:05;52.00;;;22.67;;
38455;SDS011;24237;50.106;20.014;2023-02-10T08:34:31;56.72;;;22.67;;
38455;SDS011;24237;50.106;20.014;2023-02-10T08:36:57;60.67;;;24.83;;
38455;SDS011;24237;50.106;20.014;2023-02-10T08:39:22;59.83;;;24.23;;
38455;SDS011;24237;50.106;20.014;2023-02-10T08:41:48;59.20;;;24.77;;
38455;SDS011;24237;50.106;20.014;2023-02-10T08:44:14;64.05;;;24.55;;
38455;SDS011;24237;50.106;20.014;2023-02-10T08:46:39;55.25;;;23.45;;
38455;SDS011;24237;50.106;20.014;2023-02-10T08:49:05;56.63;;;25.13;;
38455;SDS011;24237;50.106;20.014;2023-02-10T08:51:31;68.63;;;24.65;;
38455;SDS011;24237;50.106;20.014;2023-02-10T08:53:59;71.30;;;24.80;;
38455;SDS011;24237;50.106;20.014;2023-02-10T08:56:25;54.13;;;23.58;;
38455;SDS011;24237;50.106;20.014;2023-02-10T08:58:51;54.50;;;22.52;;
38455;SDS011;24237;50.106;20.014;2023-02-10T09:01:18;54.40;;;21.33;;
38455;SDS011;24237;50.106;20.014;2023-02-10T09:03:46;57.33;;;19.77;;
38455;SDS011;24237;50.106;20.014;2023-02-10T09:06:13;50.67;;;19.75;;
38455;SDS011;24237;50.106;20.014;2023-02-10T09:08:50;44.20;;;18.17;;
38455;SDS011;24237;50.106;20.014;2023-02-10T09:11:21;54.88;;;19.15;;
38455;SDS011;24237;50.106;20.014;2023-02-10T09:13:48;48.95;;;19.35;;
38455;SDS011;24237;50.106;20.014;2023-02-10T09:16:18;49.08;;;19.10;;
38455;SDS011;24237;50.106;20.014;2023-02-10T09:18:44;50.25;;;18.17;;
38455;SDS011;24237;50.106;20.014;2023-02-10T09:21:10;39.20;;;16.42;;
38455;SDS011;24237;50.106;20.014;2023-02-10T09:23:36;58.20;;;17.90;;
38455;SDS011;24237;50.106;20.014;2023-02-10T09:26:02;48.70;;;18.80;;
38455;SDS011;24237;50.106;20.014;2023-02-10T09:28:27;46.28;;;19.08;;
38455;SDS011;24237;50.106;20.014;2023-02-10T09:30:54;46.30;;;18.17;;
38455;SDS011;24237;50.106;20.014;2023-02-10T09:33:20;39.70;;;16.45;;
38455;SDS011;24237;50.106;20.014;2023-02-10T09:35:46;47.53;;;20.27;;
38455;SDS011;24237;50.106;20.014;2023-02-10T09:38:12;38.80;;;14.70;;
38455;SDS011;24237;50.106;20.014;2023-02-10T09:40:50;51.15;;;18.58;;
38455;SDS011;24237;50.106;20.014;2023-02-10T09:56:21;49.35;;;17.58;;
38455;SDS011;24237;50.106;20.014;2023-02-10T09:58:51;48.53;;;19.83;;
38455;SDS011;24237;50.106;20.014;2023-02-10T10:04:16;43.50;;;19.50;;
38455;SDS011;24237;50.106;20.014;2023-02-10T10:11:51;52.72;;;20.42;;
38455;SDS011;24237;50.106;20.014;2023-02-10T10:14:19;47.03;;;19.25;;
38455;SDS011;24237;50.106;20.014;2023-02-10T10:25:35;50.60;;;19.70;;
38455;SDS011;24237;50.106;20.014;2023-02-10T10:31:26;43.88;;;18.15;;
38455;SDS011;24237;50.106;20.014;2023-02-10T10:34:10;46.75;;;17.88;;
38455;SDS011;24237;50.106;20.014;2023-02-10T10:36:51;35.15;;;15.95;;
38455;SDS011;24237;50.106;20.014;2023-02-10T10:45:00;49.25;;;17.30;;
38455;SDS011;24237;50.106;20.014;2023-02-10T10:47:38;37.25;;;15.52;;
38455;SDS011;24237;50.106;20.014;2023-02-10T10:50:20;32.92;;;14.20;;
38455;SDS011;24237;50.106;20.014;2023-02-10T10:52:49;36.72;;;15.90;;
38455;SDS011;24237;50.106;20.014;2023-02-10T10:55:19;44.40;;;16.77;;
38455;SDS011;24237;50.106;20.014;2023-02-10T10:57:50;35.90;;;15.63;;
38455;SDS011;24237;50.106;20.014;2023-02-10T11:00:22;36.53;;;15.70;;
38455;SDS011;24237;50.106;20.014;2023-02-10T11:02:54;29.48;;;14.18;;
38455;SDS011;24237;50.106;20.014;2023-02-10T11:05:33;36.90;;;15.45;;
38455;SDS011;24237;50.106;20.014;2023-02-10T11:08:03;38.08;;;14.68;;
38455;SDS011;24237;50.106;20.014;2023-02-10T11:10:46;34.83;;;13.40;;
38455;SDS011;24237;50.106;20.014;2023-02-10T11:13:20;33.95;;;13.75;;
38455;SDS011;24237;50.106;20.014;2023-02-10T11:15:48;33.00;;;15.45;;
38455;SDS011;24237;50.106;20.014;2023-02-10T11:18:19;39.30;;;14.00;;
38455;SDS011;24237;50.106;20.014;2023-02-10T11:20:56;25.15;;;12.35;;
38455;SDS011;24237;50.106;20.014;2023-02-10T11:23:30;30.50;;;12.32;;
38455;SDS011;24237;50.106;20.014;2023-02-10T11:26:01;38.25;;;14.90;;
38455;SDS011;24237;50.106;20.014;2023-02-10T11:28:33;36.65;;;15.15;;
38455;SDS011;24237;50.106;20.014;2023-02-10T11:31:04;33.17;;;13.63;;
38455;SDS011;24237;50.106;20.014;2023-02-10T11:33:54;42.70;;;16.10;;
38455;SDS011;24237;50.106;20.014;2023-02-10T11:36:28;31.92;;;14.20;;
38455;SDS011;24237;50.106;20.014;2023-02-10T11:39:02;30.85;;;14.20;;
38455;SDS011;24237;50.106;20.014;2023-02-10T11:41:31;29.98;;;13.18;;
38455;SDS011;24237;50.106;20.014;2023-02-10T11:43:59;30.98;;;14.20;;
38455;SDS011;24237;50.106;20.014;2023-02-10T11:46:27;32.67;;;14.77;;
38455;SDS011;24237;50.106;20.014;2023-02-10T11:48:55;34.78;;;14.52;;
38455;SDS011;24237;50.106;20.014;2023-02-10T11:51:26;36.70;;;14.20;;
38455;SDS011;24237;50.106;20.014;2023-02-10T11:53:52;35.90;;;14.52;;
38455;SDS011;24237;50.106;20.014;2023-02-10T11:59:47;32.20;;;14.68;;
38455;SDS011;24237;50.106;20.014;2023-02-10T12:07:34;34.55;;;14.73;;
38455;SDS011;24237;50.106;20.014;2023-02-10T12:13:00;37.70;;;14.60;;
38455;SDS011;24237;50.106;20.014;2023-02-10T12:15:38;37.72;;;14.18;;
38455;SDS011;24237;50.106;20.014;2023-02-10T12:27:03;35.08;;;15.43;;
38455;SDS011;24237;50.106;20.014;2023-02-10T12:29:46;34.72;;;15.25;;
38455;SDS011;24237;50.106;20.014;2023-02-10T12:35:45;35.40;;;13.82;;
38455;SDS011;24237;50.106;20.014;2023-02-10T12:51:41;35.30;;;16.38;;
38455;SDS011;24237;50.106;20.014;2023-02-10T12:54:40;36.15;;;15.95;;
38455;SDS011;24237;50.106;20.014;2023-02-10T13:02:38;31.00;;;15.60;;
38455;SDS011;24237;50.106;20.014;2023-02-10T13:05:46;33.00;;;15.10;;
38455;SDS011;24237;50.106;20.014;2023-02-10T13:08:26;34.47;;;14.75;;
38455;SDS011;24237;50.106;20.014;2023-02-10T13:11:11;28.48;;;14.05;;
38455;SDS011;24237;50.106;20.014;2023-02-10T13:13:43;42.20;;;15.52;;
38455;SDS011;24237;50.106;20.014;2023-02-10T13:16:15;32.85;;;15.93;;
38455;SDS011;24237;50.106;20.014;2023-02-10T13:18:49;46.03;;;17.08;;
38455;SDS011;24237;50.106;20.014;2023-02-10T13:21:27;35.55;;;16.75;;
38455;SDS011;24237;50.106;20.014;2023-02-10T13:24:00;41.08;;;16.30;;
38455;SDS011;24237;50.106;20.014;2023-02-10T13:29:27;50.58;;;17.08;;
38455;SDS011;24237;50.106;20.014;2023-02-10T13:32:04;38.53;;;17.55;;
38455;SDS011;24237;50.106;20.014;2023-02-10T13:34:44;36.67;;;17.85;;
38455;SDS011;24237;50.106;20.014;2023-02-10T13:37:28;38.25;;;16.73;;
38455;SDS011;24237;50.106;20.014;2023-02-10T13:40:00;36.90;;;16.30;;
38455;SDS011;24237;50.106;20.014;2023-02-10T13:42:29;36.55;;;16.13;;
38455;SDS011;24237;50.106;20.014;2023-02-10T13:45:14;38.08;;;17.48;;
38455;SDS011;24237;50.106;20.014;2023-02-10T13:47:47;38.13;;;16.90;;
38455;SDS011;24237;50.106;20.014;2023-02-10T13:58:28;40.78;;;17.85;;
38455;SDS011;24237;50.106;20.014;2023-02-10T14:00:57;38.45;;;17.10;;
38455;SDS011;24237;50.106;20.014;2023-02-10T14:03:28;37.92;;;17.88;;
38455;SDS011;24237;50.106;20.014;2023-02-10T14:11:04;42.25;;;16.08;;
38455;SDS011;24237;50.106;20.014;2023-02-10T14:13:59;42.08;;;17.85;;
38455;SDS011;24237;50.106;20.014;2023-02-10T14:16:31;39.88;;;17.42;;
38455;SDS011;24237;50.106;20.014;2023-02-10T14:18:57;40.67;;;18.50;;
38455;SDS011;24237;50.106;20.014;2023-02-10T14:21:25;41.42;;;18.00;;
38455;SDS011;24237;50.106;20.014;2023-02-10T14:23:53;42.90;;;17.75;;
38455;SDS011;24237;50.106;20.014;2023-02-10T14:26:21;47.10;;;18.67;;
38455;SDS011;24237;50.106;20.014;2023-02-10T14:28:54;42.05;;;18.50;;
38455;SDS011;24237;50.106;20.014;2023-02-10T14:31:28;47.28;;;19.65;;
38455;SDS011;24237;50.106;20.014;2023-02-10T14:33:58;43.05;;;19.77;;
38455;SDS011;24237;50.106;20.014;2023-02-10T14:36:25;48.30;;;19.67;;
38455;SDS011;24237;50.106;20.014;2023-02-10T14:38:55;42.15;;;18.10;;
38455;SDS011;24237;50.106;20.014;2023-02-10T14:41:28;44.38;;;19.35;;
38455;SDS011;24237;50.106;20.014;2023-02-10T14:43:55;42.30;;;19.35;;
38455;SDS011;24237;50.106;20.014;2023-02-10T14:46:23;47.63;;;18.02;;
38455;SDS011;24237;50.106;20.014;2023-02-10T14:49:09;44.83;;;18.70;;
38455;SDS011;24237;50.106;20.014;2023-02-10T14:51:42;45.67;;;19.25;;
38455;SDS011;24237;50.106;20.014;2023-02-10T14:56:53;43.92;;;19.67;;
38455;SDS011;24237;50.106;20.014;2023-02-10T14:59:22;41.38;;;19.25;;
38455;SDS011;24237;50.106;20.014;2023-02-10T15:01:50;47.47;;;20.13;;
38455;SDS011;24237;50.106;20.014;2023-02-10T15:04:20;49.70;;;18.08;;
38455;SDS011;24237;50.106;20.014;2023-02-10T15:06:50;62.28;;;24.73;;
38455;SDS011;24237;50.106;20.014;2023-02-10T15:09:19;42.35;;;17.88;;
38455;SDS011;24237;50.106;20.014;2023-02-10T15:11:52;40.95;;;17.45;;
38455;SDS011;24237;50.106;20.014;2023-02-10T15:17:18;39.75;;;17.50;;
38455;SDS011;24237;50.106;20.014;2023-02-10T15:19:53;39.83;;;17.23;;
38455;SDS011;24237;50.106;20.014;2023-02-10T15:22:35;41.28;;;17.65;;
38455;SDS011;24237;50.106;20.014;2023-02-10T15:33:38;40.80;;;18.02;;
38455;SDS011;24237;50.106;20.014;2023-02-10T15:38:34;46.13;;;18.30;;
38455;SDS011;24237;50.106;20.014;2023-02-10T15:46:42;43.33;;;18.75;;
38455;SDS011;24237;50.106;20.014;2023-02-10T15:49:13;47.70;;;19.23;;
38455;SDS011;24237;50.106;20.014;2023-02-10T15:51:43;50.33;;;19.67;;
38455;SDS011;24237;50.106;20.014;2023-02-10T15:54:15;44.15;;;18.10;;
38455;SDS011;24237;50.106;20.014;2023-02-10T15:56:42;43.42;;;19.38;;
38455;SDS011;24237;50.106;20.014;2023-02-10T15:59:21;57.65;;;20.20;;
38455;SDS011;24237;50.106;20.014;2023-02-10T16:01:52;47.67;;;20.05;;
38455;SDS011;24237;50.106;20.014;2023-02-10T16:04:18;45.65;;;20.02;;
38455;SDS011;24237;50.106;20.014;2023-02-10T16:06:44;43.90;;;20.15;;
38455;SDS011;24237;50.106;20.014;2023-02-10T16:09:09;40.03;;;19.25;;
38455;SDS011;24237;50.106;20.014;2023-02-10T16:11:35;42.53;;;18.17;;
38455;SDS011;24237;50.106;20.014;2023-02-10T16:14:01;43.63;;;19.88;;
38455;SDS011;24237;50.106;20.014;2023-02-10T16:16:26;44.03;;;19.00;;
38455;SDS011;24237;50.106;20.014;2023-02-10T16:18:52;47.33;;;19.85;;
38455;SDS011;24237;50.106;20.014;2023-02-10T16:21:18;47.65;;;19.63;;
38455;SDS011;24237;50.106;20.014;2023-02-10T16:23:43;46.47;;;17.75;;
38455;SDS011;24237;50.106;20.014;2023-02-10T16:26:11;49.22;;;19.95;;
38455;SDS011;24237;50.106;20.014;2023-02-10T16:28:45;51.70;;;20.48;;
38455;SDS011;24237;50.106;20.014;2023-02-10T16:31:11;52.45;;;20.90;;
38455;SDS011;24237;50.106;20.014;2023-02-10T16:33:36;45.33;;;20.55;;
38455;SDS011;24237;50.106;20.014;2023-02-10T16:36:05;46.67;;;20.92;;
38455;SDS011;24237;50.106;20.014;2023-02-10T16:38:31;52.70;;;21.88;;
38455;SDS011;24237;50.106;20.014;2023-02-10T16:40:58;52.22;;;21.98;;
38455;SDS011;24237;50.106;20.014;2023-02-10T16:43:23;50.67;;;22.33;;
38455;SDS011;24237;50.106;20.014;2023-02-10T16:45:49;51.83;;;21.60;;